sensor_id;sensor_type;location;lat;lon;timestamp;temperature;humidity
9772;DHT22;4925;52.588;13.370;2024-01-07T00:01:59;0.10;99.90
9772;DHT22;4925;52.588;13.370;2024-01-07T00:04:25;0.10;99.90
9772;DHT22;4925;52.588;13.370;2024-01-07T00:06:51;0.10;99.90
9772;DHT22;4925;52.588;13.370;2024-01-07T00:09:16;0.10;99.90
9772;DHT22;4925;52.588;13.370;2024-01-07T00:11:42;0.00;99.90
9772;DHT22;4925;52.588;13.370;2024-01-07T00:14:08;0.10;99.90
9772;DHT22;4925;52.588;13.370;2024-01-07T00:16:34;0.10;99.90
9772;DHT22;4925;52.588;13.370;2024-01-07T00:19:00;0.00;99.90
9772;DHT22;4925;52.588;13.370;2024-01-07T00:21:27;0.10;99.90
9772;DHT22;4925;52.588;13.370;2024-01-07T00:23:54;0.00;99.90
9772;DHT22;4925;52.588;13.370;2024-01-07T00:26:20;0.00;99.90
9772;DHT22;4925;52.588;13.370;2024-01-07T00:28:47;-0.10;99.90
9772;DHT22;4925;52.588;13.370;2024-01-07T00:31:13;-0.10;99.90
9772;DHT22;4925;52.588;13.370;2024-01-07T00:33:39;-0.20;99.90
9772;DHT22;4925;52.588;13.370;2024-01-07T00:36:05;-0.10;99.90
9772;DHT22;4925;52.588;13.370;2024-01-07T00:38:31;-0.20;99.90
9772;DHT22;4925;52.588;13.370;2024-01-07T00:40:56;-0.20;99.90
9772;DHT22;4925;52.588;13.370;2024-01-07T00:43:22;-0.20;99.90
9772;DHT22;4925;52.588;13.370;2024-01-07T00:45:48;-0.20;99.90
9772;DHT22;4925;52.588;13.370;2024-01-07T00:48:18;-0.30;99.90
9772;DHT22;4925;52.588;13.370;2024-01-07T00:50:44;-0.30;99.90
9772;DHT22;4925;52.588;13.370;2024-01-07T00:53:09;-0.30;99.90
9772;DHT22;4925;52.588;13.370;2024-01-07T00:55:36;-0.30;99.90
9772;DHT22;4925;52.588;13.370;2024-01-07T00:58:03;-0.30;99.90
9772;DHT22;4925;52.588;13.370;2024-01-07T01:00:29;-0.30;99.90
9772;DHT22;4925;52.588;13.370;2024-01-07T01:02:55;-0.30;99.90
9772;DHT22;4925;52.588;13.370;2024-01-07T01:05:21;-0.40;99.90
9772;DHT22;4925;52.588;13.370;2024-01-07T01:07:47;-0.50;99.90
9772;DHT22;4925;52.588;13.370;2024-01-07T01:10:13;-0.50;99.90
9772;DHT22;4925;52.588;13.370;2024-01-07T01:12:42;-0.50;99.90
9772;DHT22;4925;52.588;13.370;2024-01-07T01:15:08;-0.50;99.90
9772;DHT22;4925;52.588;13.370;2024-01-07T01:17:34;-0.50;99.90
9772;DHT22;4925;52.588;13.370;2024-01-07T01:20:00;-0.50;99.90
9772;DHT22;4925;52.588;13.370;2024-01-07T01:22:26;-0.60;99.90
9772;DHT22;4925;52.588;13.370;2024-01-07T01:24:51;-0.70;99.90
9772;DHT22;4925;52.588;13.370;2024-01-07T01:27:19;-0.70;99.90
9772;DHT22;4925;52.588;13.370;2024-01-07T01:29:44;-0.70;99.90
9772;DHT22;4925;52.588;13.370;2024-01-07T01:32:10;-0.70;99.90
9772;DHT22;4925;52.588;13.370;2024-01-07T01:34:37;-0.70;99.90
9772;DHT22;4925;52.588;13.370;2024-01-07T01:37:03;-0.70;99.90
9772;DHT22;4925;52.588;13.370;2024-01-07T01:39:29;-0.80;99.90
9772;DHT22;4925;52.588;13.370;2024-01-07T01:41:55;-0.80;99.90
9772;DHT22;4925;52.588;13.370;2024-01-07T01:44:21;-0.80;99.90
9772;DHT22;4925;52.588;13.370;2024-01-07T01:46:47;-0.90;99.90
9772;DHT22;4925;52.588;13.370;2024-01-07T01:49:13;-0.90;99.90
9772;DHT22;4925;52.588;13.370;2024-01-07T01:51:39;-1.00;99.90
9772;DHT22;4925;52.588;13.370;2024-01-07T01:54:05;-1.00;99.90
9772;DHT22;4925;52.588;13.370;2024-01-07T01:56:33;-1.00;99.90
9772;DHT22;4925;52.588;13.370;2024-01-07T01:58:59;-1.00;99.90
9772;DHT22;4925;52.588;13.370;2024-01-07T02:01:25;-1.00;99.90
9772;DHT22;4925;52.588;13.370;2024-01-07T02:03:51;-1.00;99.90
9772;DHT22;4925;52.588;13.370;2024-01-07T02:06:20;-1.00;99.90
9772;DHT22;4925;52.588;13.370;2024-01-07T02:08:46;-1.00;99.90
9772;DHT22;4925;52.588;13.370;2024-01-07T02:11:19;-1.10;99.90
9772;DHT22;4925;52.588;13.370;2024-01-07T02:13:45;-1.10;99.90
9772;DHT22;4925;52.588;13.370;2024-01-07T02:16:11;-1.00;99.90
9772;DHT22;4925;52.588;13.370;2024-01-07T02:18:39;-1.00;99.90
9772;DHT22;4925;52.588;13.370;2024-01-07T02:21:07;-1.00;99.90
9772;DHT22;4925;52.588;13.370;2024-01-07T02:23:32;-0.90;99.90
9772;DHT22;4925;52.588;13.370;2024-01-07T02:25:58;-0.90;99.90
9772;DHT22;4925;52.588;13.370;2024-01-07T02:28:23;-1.00;99.90
9772;DHT22;4925;52.588;13.370;2024-01-07T02:30:49;-1.00;99.90
9772;DHT22;4925;52.588;13.370;2024-01-07T02:33:15;-1.00;99.90
9772;DHT22;4925;52.588;13.370;2024-01-07T02:35:40;-1.00;99.90
9772;DHT22;4925;52.588;13.370;2024-01-07T02:38:06;-1.20;99.90
9772;DHT22;4925;52.588;13.370;2024-01-07T02:40:32;-1.20;99.90
9772;DHT22;4925;52.588;13.370;2024-01-07T02:42:58;-1.20;99.90
9772;DHT22;4925;52.588;13.370;2024-01-07T02:45:24;-1.20;99.90
9772;DHT22;4925;52.588;13.370;2024-01-07T02:47:50;-1.10;99.90
9772;DHT22;4925;52.588;13.370;2024-01-07T02:50:15;-1.20;99.90
9772;DHT22;4925;52.588;13.370;2024-01-07T02:52:41;-1.30;99.90
9772;DHT22;4925;52.588;13.370;2024-01-07T02:55:08;-1.30;99.90
9772;DHT22;4925;52.588;13.370;2024-01-07T02:57:33;-1.30;99.90
9772;DHT22;4925;52.588;13.370;2024-01-07T02:59:59;-1.40;99.90
9772;DHT22;4925;52.588;13.370;2024-01-07T03:02:25;-1.40;99.90
9772;DHT22;4925;52.588;13.370;2024-01-07T03:04:51;-1.40;99.90
9772;DHT22;4925;52.588;13.370;2024-01-07T03:07:16;-1.40;99.90
9772;DHT22;4925;52.588;13.370;2024-01-07T03:09:42;-1.40;99.90
9772;DHT22;4925;52.588;13.370;2024-01-07T03:12:08;-1.40;99.90
9772;DHT22;4925;52.588;13.370;2024-01-07T03:14:34;-1.40;99.90
9772;DHT22;4925;52.588;13.370;2024-01-07T03:17:00;-1.40;99.90
9772;DHT22;4925;52.588;13.370;2024-01-07T03:19:27;-1.50;99.90
9772;DHT22;4925;52.588;13.370;2024-01-07T03:21:52;-1.50;99.90
9772;DHT22;4925;52.588;13.370;2024-01-07T03:24:18;-1.50;99.90
9772;DHT22;4925;52.588;13.370;2024-01-07T03:26:43;-1.50;99.90
9772;DHT22;4925;52.588;13.370;2024-01-07T03:29:09;-1.40;99.90
9772;DHT22;4925;52.588;13.370;2024-01-07T03:31:35;-1.40;99.90
9772;DHT22;4925;52.588;13.370;2024-01-07T03:34:00;-1.50;99.90
9772;DHT22;4925;52.588;13.370;2024-01-07T03:36:26;-1.50;99.90
9772;DHT22;4925;52.588;13.370;2024-01-07T03:38:52;-1.50;99.90
9772;DHT22;4925;52.588;13.370;2024-01-07T03:41:19;-1.50;99.90
9772;DHT22;4925;52.588;13.370;2024-01-07T03:43:48;-1.50;99.90
9772;DHT22;4925;52.588;13.370;2024-01-07T03:46:15;-1.50;99.90
9772;DHT22;4925;52.588;13.370;2024-01-07T03:48:41;-1.60;99.90
9772;DHT22;4925;52.588;13.370;2024-01-07T03:51:08;-1.60;99.90
9772;DHT22;4925;52.588;13.370;2024-01-07T03:53:34;-1.60;99.90
9772;DHT22;4925;52.588;13.370;2024-01-07T03:56:00;-1.70;99.90
9772;DHT22;4925;52.588;13.370;2024-01-07T03:58:26;-1.70;99.90
9772;DHT22;4925;52.588;13.370;2024-01-07T04:00:51;-1.70;99.90
9772;DHT22;4925;52.588;13.370;2024-01-07T04:03:17;-1.60;99.90
9772;DHT22;4925;52.588;13.370;2024-01-07T04:05:43;-1.60;99.90
9772;DHT22;4925;52.588;13.370;2024-01-07T04:08:11;-1.60;99.90
9772;DHT22;4925;52.588;13.370;2024-01-07T04:10:37;-1.60;99.90
9772;DHT22;4925;52.588;13.370;2024-01-07T04:13:04;-1.50;99.90
9772;DHT22;4925;52.588;13.370;2024-01-07T04:15:30;-1.50;99.90
9772;DHT22;4925;52.588;13.370;2024-01-07T04:17:55;-1.50;99.90
9772;DHT22;4925;52.588;13.370;2024-01-07T04:20:21;-1.50;99.90
9772;DHT22;4925;52.588;13.370;2024-01-07T04:22:47;-1.50;99.90
9772;DHT22;4925;52.588;13.370;2024-01-07T04:25:13;-1.40;99.90
9772;DHT22;4925;52.588;13.370;2024-01-07T04:27:39;-1.50;99.90
9772;DHT22;4925;52.588;13.370;2024-01-07T04:30:05;-1.50;99.90
9772;DHT22;4925;52.588;13.370;2024-01-07T04:32:31;-1.50;99.90
9772;DHT22;4925;52.588;13.370;2024-01-07T04:34:57;-1.50;99.90
9772;DHT22;4925;52.588;13.370;2024-01-07T04:37:26;-1.50;99.90
9772;DHT22;4925;52.588;13.370;2024-01-07T04:39:51;-1.60;99.90
9772;DHT22;4925;52.588;13.370;2024-01-07T04:42:17;-1.50;99.90
9772;DHT22;4925;52.588;13.370;2024-01-07T04:44:43;-1.60;99.90
9772;DHT22;4925;52.588;13.370;2024-01-07T04:47:29;-1.50;99.90
9772;DHT22;4925;52.588;13.370;2024-01-07T04:49:55;-1.50;99.90
9772;DHT22;4925;52.588;13.370;2024-01-07T04:52:24;-1.50;99.90
9772;DHT22;4925;52.588;13.370;2024-01-07T04:54:54;-1.40;99.90
9772;DHT22;4925;52.588;13.370;2024-01-07T04:57:20;-1.40;99.90
9772;DHT22;4925;52.588;13.370;2024-01-07T04:59:47;-1.30;99.90
9772;DHT22;4925;52.588;13.370;2024-01-07T05:02:14;-1.20;99.90
9772;DHT22;4925;52.588;13.370;2024-01-07T05:04:40;-1.20;99.90
9772;DHT22;4925;52.588;13.370;2024-01-07T05:07:05;-1.20;99.90
9772;DHT22;4925;52.588;13.370;2024-01-07T05:09:34;-1.10;99.90
9772;DHT22;4925;52.588;13.370;2024-01-07T05:12:00;-1.10;99.90
9772;DHT22;4925;52.588;13.370;2024-01-07T05:14:27;-1.10;99.90
9772;DHT22;4925;52.588;13.370;2024-01-07T05:16:53;-1.10;99.90
9772;DHT22;4925;52.588;13.370;2024-01-07T05:19:22;-1.00;99.90
9772;DHT22;4925;52.588;13.370;2024-01-07T05:21:48;-1.00;99.90
9772;DHT22;4925;52.588;13.370;2024-01-07T05:24:13;-1.00;99.90
9772;DHT22;4925;52.588;13.370;2024-01-07T05:26:43;-1.00;99.90
9772;DHT22;4925;52.588;13.370;2024-01-07T05:29:09;-1.10;99.90
9772;DHT22;4925;52.588;13.370;2024-01-07T05:31:39;-1.00;99.90
9772;DHT22;4925;52.588;13.370;2024-01-07T05:34:06;-1.10;99.90
9772;DHT22;4925;52.588;13.370;2024-01-07T05:36:32;-1.00;99.90
9772;DHT22;4925;52.588;13.370;2024-01-07T05:38:58;-1.00;99.90
9772;DHT22;4925;52.588;13.370;2024-01-07T05:41:23;-1.00;99.90
9772;DHT22;4925;52.588;13.370;2024-01-07T05:43:49;-1.00;99.90
9772;DHT22;4925;52.588;13.370;2024-01-07T05:46:14;-0.90;99.90
9772;DHT22;4925;52.588;13.370;2024-01-07T05:48:49;-1.00;99.90
9772;DHT22;4925;52.588;13.370;2024-01-07T05:51:15;-1.00;99.90
9772;DHT22;4925;52.588;13.370;2024-01-07T05:53:42;-1.00;99.90
9772;DHT22;4925;52.588;13.370;2024-01-07T05:56:09;-1.00;99.90
9772;DHT22;4925;52.588;13.370;2024-01-07T05:58:36;-0.90;99.90
9772;DHT22;4925;52.588;13.370;2024-01-07T06:01:02;-0.90;99.90
9772;DHT22;4925;52.588;13.370;2024-01-07T06:03:28;-0.90;99.90
9772;DHT22;4925;52.588;13.370;2024-01-07T06:05:54;-0.80;99.90
9772;DHT22;4925;52.588;13.370;2024-01-07T06:08:20;-0.80;99.90
9772;DHT22;4925;52.588;13.370;2024-01-07T06:10:45;-0.70;99.90
9772;DHT22;4925;52.588;13.370;2024-01-07T06:13:11;-0.70;99.90
9772;DHT22;4925;52.588;13.370;2024-01-07T06:15:36;-0.80;99.90
9772;DHT22;4925;52.588;13.370;2024-01-07T06:18:03;-0.70;99.90
9772;DHT22;4925;52.588;13.370;2024-01-07T06:20:28;-0.60;99.90
9772;DHT22;4925;52.588;13.370;2024-01-07T06:22:54;-0.60;99.90
9772;DHT22;4925;52.588;13.370;2024-01-07T06:25:20;-0.50;99.90
9772;DHT22;4925;52.588;13.370;2024-01-07T06:27:46;-0.60;99.90
9772;DHT22;4925;52.588;13.370;2024-01-07T06:30:12;-0.50;99.90
9772;DHT22;4925;52.588;13.370;2024-01-07T06:32:37;-0.60;99.90
9772;DHT22;4925;52.588;13.370;2024-01-07T06:35:04;-0.50;99.90
9772;DHT22;4925;52.588;13.370;2024-01-07T06:37:31;-0.50;99.90
9772;DHT22;4925;52.588;13.370;2024-01-07T06:39:57;-0.40;99.90
9772;DHT22;4925;52.588;13.370;2024-01-07T06:42:24;-0.40;99.90
9772;DHT22;4925;52.588;13.370;2024-01-07T06:44:51;-0.40;99.90
9772;DHT22;4925;52.588;13.370;2024-01-07T06:47:16;-0.30;99.90
9772;DHT22;4925;52.588;13.370;2024-01-07T06:49:42;-0.30;99.90
9772;DHT22;4925;52.588;13.370;2024-01-07T06:52:08;-0.30;99.90
9772;DHT22;4925;52.588;13.370;2024-01-07T06:54:35;-0.30;99.90
9772;DHT22;4925;52.588;13.370;2024-01-07T06:57:01;-0.50;99.90
9772;DHT22;4925;52.588;13.370;2024-01-07T06:59:26;-0.40;99.90
9772;DHT22;4925;52.588;13.370;2024-01-07T07:01:52;-0.30;99.90
9772;DHT22;4925;52.588;13.370;2024-01-07T07:04:20;0.60;99.90
9772;DHT22;4925;52.588;13.370;2024-01-07T07:06:47;-0.30;99.90
9772;DHT22;4925;52.588;13.370;2024-01-07T07:09:14;-0.30;99.90
9772;DHT22;4925;52.588;13.370;2024-01-07T07:11:41;-0.40;99.90
9772;DHT22;4925;52.588;13.370;2024-01-07T07:14:07;-0.50;99.90
9772;DHT22;4925;52.588;13.370;2024-01-07T07:16:32;-0.40;99.90
9772;DHT22;4925;52.588;13.370;2024-01-07T07:18:58;-0.40;99.90
9772;DHT22;4925;52.588;13.370;2024-01-07T07:21:25;-0.40;99.90
9772;DHT22;4925;52.588;13.370;2024-01-07T07:23:52;-0.50;99.90
9772;DHT22;4925;52.588;13.370;2024-01-07T07:26:18;-0.60;99.90
9772;DHT22;4925;52.588;13.370;2024-01-07T07:28:44;-0.70;99.90
9772;DHT22;4925;52.588;13.370;2024-01-07T07:31:11;-0.70;99.90
9772;DHT22;4925;52.588;13.370;2024-01-07T07:33:39;-0.50;99.90
9772;DHT22;4925;52.588;13.370;2024-01-07T07:36:07;-0.40;99.90
9772;DHT22;4925;52.588;13.370;2024-01-07T07:38:35;-0.40;99.90
9772;DHT22;4925;52.588;13.370;2024-01-07T07:41:01;-0.40;99.90
9772;DHT22;4925;52.588;13.370;2024-01-07T07:43:27;-0.40;99.90
9772;DHT22;4925;52.588;13.370;2024-01-07T07:45:52;-0.20;99.90
9772;DHT22;4925;52.588;13.370;2024-01-07T07:48:18;-0.20;99.90
9772;DHT22;4925;52.588;13.370;2024-01-07T07:50:44;-0.10;99.90
9772;DHT22;4925;52.588;13.370;2024-01-07T07:53:10;-0.10;99.90
9772;DHT22;4925;52.588;13.370;2024-01-07T07:55:35;0.10;99.90
9772;DHT22;4925;52.588;13.370;2024-01-07T07:58:01;0.20;99.90
9772;DHT22;4925;52.588;13.370;2024-01-07T08:00:28;0.20;99.90
9772;DHT22;4925;52.588;13.370;2024-01-07T08:02:53;0.20;99.90
9772;DHT22;4925;52.588;13.370;2024-01-07T08:05:19;0.40;99.90
9772;DHT22;4925;52.588;13.370;2024-01-07T08:07:46;0.40;99.90
9772;DHT22;4925;52.588;13.370;2024-01-07T08:10:12;0.40;99.90
9772;DHT22;4925;52.588;13.370;2024-01-07T08:12:38;0.50;99.90
9772;DHT22;4925;52.588;13.370;2024-01-07T08:15:04;0.50;99.90
9772;DHT22;4925;52.588;13.370;2024-01-07T08:17:30;0.50;99.90
9772;DHT22;4925;52.588;13.370;2024-01-07T08:19:56;0.50;99.90
9772;DHT22;4925;52.588;13.370;2024-01-07T08:22:21;0.60;99.90
9772;DHT22;4925;52.588;13.370;2024-01-07T08:24:47;0.70;99.90
9772;DHT22;4925;52.588;13.370;2024-01-07T08:27:13;0.80;99.90
9772;DHT22;4925;52.588;13.370;2024-01-07T08:29:41;0.80;99.90
9772;DHT22;4925;52.588;13.370;2024-01-07T08:32:07;1.00;99.90
9772;DHT22;4925;52.588;13.370;2024-01-07T08:34:33;0.90;99.90
9772;DHT22;4925;52.588;13.370;2024-01-07T08:37:00;1.00;99.90
9772;DHT22;4925;52.588;13.370;2024-01-07T08:39:25;1.10;99.90
9772;DHT22;4925;52.588;13.370;2024-01-07T08:41:53;1.10;99.90
9772;DHT22;4925;52.588;13.370;2024-01-07T08:44:22;1.10;99.90
9772;DHT22;4925;52.588;13.370;2024-01-07T08:46:48;1.10;99.90
9772;DHT22;4925;52.588;13.370;2024-01-07T08:49:14;1.20;99.90
9772;DHT22;4925;52.588;13.370;2024-01-07T08:51:40;1.20;99.90
9772;DHT22;4925;52.588;13.370;2024-01-07T08:54:05;1.30;99.90
9772;DHT22;4925;52.588;13.370;2024-01-07T08:56:31;1.40;99.90
9772;DHT22;4925;52.588;13.370;2024-01-07T08:58:57;1.40;99.90
9772;DHT22;4925;52.588;13.370;2024-01-07T09:01:24;1.40;99.90
9772;DHT22;4925;52.588;13.370;2024-01-07T09:03:51;1.40;99.90
9772;DHT22;4925;52.588;13.370;2024-01-07T09:06:17;1.40;99.90
9772;DHT22;4925;52.588;13.370;2024-01-07T09:08:42;1.40;99.90
9772;DHT22;4925;52.588;13.370;2024-01-07T09:11:08;1.40;99.90
9772;DHT22;4925;52.588;13.370;2024-01-07T09:13:36;1.30;99.90
9772;DHT22;4925;52.588;13.370;2024-01-07T09:16:02;1.40;99.90
9772;DHT22;4925;52.588;13.370;2024-01-07T09:18:28;1.40;99.90
9772;DHT22;4925;52.588;13.370;2024-01-07T09:20:54;1.50;99.90
9772;DHT22;4925;52.588;13.370;2024-01-07T09:23:19;1.50;99.90
9772;DHT22;4925;52.588;13.370;2024-01-07T09:25:45;1.50;99.90
9772;DHT22;4925;52.588;13.370;2024-01-07T09:28:11;1.40;99.90
9772;DHT22;4925;52.588;13.370;2024-01-07T09:30:38;1.40;99.90
9772;DHT22;4925;52.588;13.370;2024-01-07T09:33:04;1.40;99.90
9772;DHT22;4925;52.588;13.370;2024-01-07T09:35:30;1.40;99.90
9772;DHT22;4925;52.588;13.370;2024-01-07T09:37:56;1.40;99.90
9772;DHT22;4925;52.588;13.370;2024-01-07T09:40:22;1.40;99.90
9772;DHT22;4925;52.588;13.370;2024-01-07T09:42:47;1.30;99.90
9772;DHT22;4925;52.588;13.370;2024-01-07T09:45:15;1.40;99.90
9772;DHT22;4925;52.588;13.370;2024-01-07T09:47:42;1.30;99.90
9772;DHT22;4925;52.588;13.370;2024-01-07T09:50:11;1.30;99.90
9772;DHT22;4925;52.588;13.370;2024-01-07T09:52:38;1.30;99.90
9772;DHT22;4925;52.588;13.370;2024-01-07T09:55:09;1.20;99.90
9772;DHT22;4925;52.588;13.370;2024-01-07T09:57:40;1.10;99.90
9772;DHT22;4925;52.588;13.370;2024-01-07T10:00:11;1.10;99.90
9772;DHT22;4925;52.588;13.370;2024-01-07T10:02:39;1.00;99.90
9772;DHT22;4925;52.588;13.370;2024-01-07T10:05:06;1.00;99.90
9772;DHT22;4925;52.588;13.370;2024-01-07T10:07:34;1.10;99.90
9772;DHT22;4925;52.588;13.370;2024-01-07T10:10:13;1.00;99.90
9772;DHT22;4925;52.588;13.370;2024-01-07T10:12:39;1.10;99.90
9772;DHT22;4925;52.588;13.370;2024-01-07T10:15:05;1.10;99.90
9772;DHT22;4925;52.588;13.370;2024-01-07T10:17:33;1.10;99.90
9772;DHT22;4925;52.588;13.370;2024-01-07T10:19:58;1.10;99.90
9772;DHT22;4925;52.588;13.370;2024-01-07T10:22:24;1.20;99.90
9772;DHT22;4925;52.588;13.370;2024-01-07T10:24:51;1.20;99.90
9772;DHT22;4925;52.588;13.370;2024-01-07T10:27:18;1.20;99.90
9772;DHT22;4925;52.588;13.370;2024-01-07T10:29:47;1.20;99.90
9772;DHT22;4925;52.588;13.370;2024-01-07T10:32:16;1.00;99.90
9772;DHT22;4925;52.588;13.370;2024-01-07T10:34:46;1.00;99.90
9772;DHT22;4925;52.588;13.370;2024-01-07T10:37:15;1.10;99.90
9772;DHT22;4925;52.588;13.370;2024-01-07T10:39:41;1.10;99.90
9772;DHT22;4925;52.588;13.370;2024-01-07T10:42:08;0.80;99.90
9772;DHT22;4925;52.588;13.370;2024-01-07T10:44:34;0.90;99.90
9772;DHT22;4925;52.588;13.370;2024-01-07T10:47:06;1.00;99.90
9772;DHT22;4925;52.588;13.370;2024-01-07T10:49:35;1.20;99.90
9772;DHT22;4925;52.588;13.370;2024-01-07T10:52:06;1.20;99.90
9772;DHT22;4925;52.588;13.370;2024-01-07T10:54:34;1.20;99.90
9772;DHT22;4925;52.588;13.370;2024-01-07T10:57:17;1.30;99.90
9772;DHT22;4925;52.588;13.370;2024-01-07T10:59:45;1.30;99.90
9772;DHT22;4925;52.588;13.370;2024-01-07T11:02:12;1.50;99.90
9772;DHT22;4925;52.588;13.370;2024-01-07T11:04:54;1.60;99.90
9772;DHT22;4925;52.588;13.370;2024-01-07T11:07:39;1.60;99.90
9772;DHT22;4925;52.588;13.370;2024-01-07T11:12:38;1.90;99.90
9772;DHT22;4925;52.588;13.370;2024-01-07T11:15:07;1.90;99.90
9772;DHT22;4925;52.588;13.370;2024-01-07T11:17:43;1.80;99.90
9772;DHT22;4925;52.588;13.370;2024-01-07T11:20:13;1.90;99.90
9772;DHT22;4925;52.588;13.370;2024-01-07T11:22:43;1.90;99.90
9772;DHT22;4925;52.588;13.370;2024-01-07T11:25:28;2.00;99.90
9772;DHT22;4925;52.588;13.370;2024-01-07T11:27:56;2.00;99.90
9772;DHT22;4925;52.588;13.370;2024-01-07T11:30:22;1.90;99.90
9772;DHT22;4925;52.588;13.370;2024-01-07T11:32:59;2.00;99.90
9772;DHT22;4925;52.588;13.370;2024-01-07T11:35:59;2.00;99.90
9772;DHT22;4925;52.588;13.370;2024-01-07T11:38:25;1.90;99.90
9772;DHT22;4925;52.588;13.370;2024-01-07T11:40:51;2.00;99.90
9772;DHT22;4925;52.588;13.370;2024-01-07T11:43:18;2.10;99.90
9772;DHT22;4925;52.588;13.370;2024-01-07T11:45:44;2.00;99.90
9772;DHT22;4925;52.588;13.370;2024-01-07T11:48:10;2.00;99.90
9772;DHT22;4925;52.588;13.370;2024-01-07T11:50:37;2.00;99.90
9772;DHT22;4925;52.588;13.370;2024-01-07T11:53:02;2.20;99.90
9772;DHT22;4925;52.588;13.370;2024-01-07T11:55:29;2.20;99.90
9772;DHT22;4925;52.588;13.370;2024-01-07T11:58:00;2.20;99.90
9772;DHT22;4925;52.588;13.370;2024-01-07T12:00:26;2.10;99.90
9772;DHT22;4925;52.588;13.370;2024-01-07T12:02:51;2.10;99.90
9772;DHT22;4925;52.588;13.370;2024-01-07T12:05:17;2.10;99.90
9772;DHT22;4925;52.588;13.370;2024-01-07T12:07:43;2.10;99.90
9772;DHT22;4925;52.588;13.370;2024-01-07T12:10:09;2.00;99.90
9772;DHT22;4925;52.588;13.370;2024-01-07T12:12:42;1.90;99.90
9772;DHT22;4925;52.588;13.370;2024-01-07T12:15:09;1.70;99.90
9772;DHT22;4925;52.588;13.370;2024-01-07T12:17:41;1.90;99.90
9772;DHT22;4925;52.588;13.370;2024-01-07T12:20:07;1.90;99.90
9772;DHT22;4925;52.588;13.370;2024-01-07T12:22:37;2.10;99.90
9772;DHT22;4925;52.588;13.370;2024-01-07T12:25:04;2.20;99.90
9772;DHT22;4925;52.588;13.370;2024-01-07T12:27:31;2.20;99.90
9772;DHT22;4925;52.588;13.370;2024-01-07T12:29:58;2.10;99.90
9772;DHT22;4925;52.588;13.370;2024-01-07T12:32:31;2.10;99.90
9772;DHT22;4925;52.588;13.370;2024-01-07T12:34:58;2.10;99.90
9772;DHT22;4925;52.588;13.370;2024-01-07T12:37:27;2.20;99.90
9772;DHT22;4925;52.588;13.370;2024-01-07T12:39:53;2.20;99.90
9772;DHT22;4925;52.588;13.370;2024-01-07T12:42:20;2.20;99.90
9772;DHT22;4925;52.588;13.370;2024-01-07T12:44:50;2.30;99.90
9772;DHT22;4925;52.588;13.370;2024-01-07T12:47:16;2.40;99.90
9772;DHT22;4925;52.588;13.370;2024-01-07T12:49:43;2.30;99.90
9772;DHT22;4925;52.588;13.370;2024-01-07T12:52:10;2.20;99.90
9772;DHT22;4925;52.588;13.370;2024-01-07T12:54:38;2.30;99.90
9772;DHT22;4925;52.588;13.370;2024-01-07T12:57:04;2.40;99.90
9772;DHT22;4925;52.588;13.370;2024-01-07T12:59:30;2.40;99.90
9772;DHT22;4925;52.588;13.370;2024-01-07T13:01:55;2.50;99.90
9772;DHT22;4925;52.588;13.370;2024-01-07T13:04:21;2.50;99.90
9772;DHT22;4925;52.588;13.370;2024-01-07T13:06:47;2.50;99.90
9772;DHT22;4925;52.588;13.370;2024-01-07T13:09:12;2.60;99.90
9772;DHT22;4925;52.588;13.370;2024-01-07T13:11:38;2.50;99.90
9772;DHT22;4925;52.588;13.370;2024-01-07T13:14:05;2.70;99.90
9772;DHT22;4925;52.588;13.370;2024-01-07T13:16:31;2.70;99.90
9772;DHT22;4925;52.588;13.370;2024-01-07T13:18:57;2.70;99.90
9772;DHT22;4925;52.588;13.370;2024-01-07T13:21:23;2.60;99.90
9772;DHT22;4925;52.588;13.370;2024-01-07T13:23:49;2.60;99.90
9772;DHT22;4925;52.588;13.370;2024-01-07T13:26:16;2.60;99.90
9772;DHT22;4925;52.588;13.370;2024-01-07T13:28:42;2.50;99.90
9772;DHT22;4925;52.588;13.370;2024-01-07T13:31:10;2.60;99.90
9772;DHT22;4925;52.588;13.370;2024-01-07T13:33:40;2.70;99.90
9772;DHT22;4925;52.588;13.370;2024-01-07T13:36:06;2.60;99.90
9772;DHT22;4925;52.588;13.370;2024-01-07T13:38:36;2.50;99.90
9772;DHT22;4925;52.588;13.370;2024-01-07T13:41:04;2.50;99.90
9772;DHT22;4925;52.588;13.370;2024-01-07T13:43:30;2.60;99.90
9772;DHT22;4925;52.588;13.370;2024-01-07T13:45:56;2.60;99.90
9772;DHT22;4925;52.588;13.370;2024-01-07T13:48:21;2.60;99.90
9772;DHT22;4925;52.588;13.370;2024-01-07T13:50:47;2.60;99.90
9772;DHT22;4925;52.588;13.370;2024-01-07T13:53:15;2.60;99.90
9772;DHT22;4925;52.588;13.370;2024-01-07T13:55:40;2.60;99.90
9772;DHT22;4925;52.588;13.370;2024-01-07T13:58:06;2.60;99.90
9772;DHT22;4925;52.588;13.370;2024-01-07T14:00:32;2.60;99.90
9772;DHT22;4925;52.588;13.370;2024-01-07T14:02:58;2.60;99.90
9772;DHT22;4925;52.588;13.370;2024-01-07T14:05:24;2.40;99.90
9772;DHT22;4925;52.588;13.370;2024-01-07T14:07:50;2.50;99.90
9772;DHT22;4925;52.588;13.370;2024-01-07T14:10:17;2.50;99.90
9772;DHT22;4925;52.588;13.370;2024-01-07T14:12:44;2.60;99.90
9772;DHT22;4925;52.588;13.370;2024-01-07T14:15:09;2.70;99.90
9772;DHT22;4925;52.588;13.370;2024-01-07T14:17:35;2.60;99.90
9772;DHT22;4925;52.588;13.370;2024-01-07T14:20:01;2.50;99.90
9772;DHT22;4925;52.588;13.370;2024-01-07T14:22:28;2.60;99.90
9772;DHT22;4925;52.588;13.370;2024-01-07T14:24:54;2.60;99.90
9772;DHT22;4925;52.588;13.370;2024-01-07T14:27:20;2.60;99.90
9772;DHT22;4925;52.588;13.370;2024-01-07T14:29:46;2.60;99.90
9772;DHT22;4925;52.588;13.370;2024-01-07T14:32:12;2.60;99.90
9772;DHT22;4925;52.588;13.370;2024-01-07T14:34:40;2.50;99.90
9772;DHT22;4925;52.588;13.370;2024-01-07T14:37:07;2.50;99.90
9772;DHT22;4925;52.588;13.370;2024-01-07T14:39:38;2.40;99.90
9772;DHT22;4925;52.588;13.370;2024-01-07T14:42:04;2.40;99.90
9772;DHT22;4925;52.588;13.370;2024-01-07T14:44:31;2.30;99.90
9772;DHT22;4925;52.588;13.370;2024-01-07T14:46:56;2.40;99.90
9772;DHT22;4925;52.588;13.370;2024-01-07T14:49:22;2.50;99.90
9772;DHT22;4925;52.588;13.370;2024-01-07T14:51:48;2.50;99.90
9772;DHT22;4925;52.588;13.370;2024-01-07T14:54:13;2.40;99.90
9772;DHT22;4925;52.588;13.370;2024-01-07T14:56:40;2.30;99.90
9772;DHT22;4925;52.588;13.370;2024-01-07T14:59:07;2.20;99.90
9772;DHT22;4925;52.588;13.370;2024-01-07T15:01:34;2.20;99.90
9772;DHT22;4925;52.588;13.370;2024-01-07T15:04:00;2.20;99.90
9772;DHT22;4925;52.588;13.370;2024-01-07T15:06:26;2.20;99.90
9772;DHT22;4925;52.588;13.370;2024-01-07T15:08:52;2.20;99.90
9772;DHT22;4925;52.588;13.370;2024-01-07T15:11:19;2.10;99.90
9772;DHT22;4925;52.588;13.370;2024-01-07T15:13:45;2.10;99.90
9772;DHT22;4925;52.588;13.370;2024-01-07T15:16:11;2.10;99.90
9772;DHT22;4925;52.588;13.370;2024-01-07T15:18:36;2.00;99.90
9772;DHT22;4925;52.588;13.370;2024-01-07T15:21:02;2.00;99.90
9772;DHT22;4925;52.588;13.370;2024-01-07T15:23:28;2.00;99.90
9772;DHT22;4925;52.588;13.370;2024-01-07T15:25:54;1.90;99.90
9772;DHT22;4925;52.588;13.370;2024-01-07T15:28:20;2.00;99.90
9772;DHT22;4925;52.588;13.370;2024-01-07T15:30:47;2.10;99.90
9772;DHT22;4925;52.588;13.370;2024-01-07T15:33:13;1.90;99.90
9772;DHT22;4925;52.588;13.370;2024-01-07T15:35:39;1.90;99.90
9772;DHT22;4925;52.588;13.370;2024-01-07T15:38:05;1.90;99.90
9772;DHT22;4925;52.588;13.370;2024-01-07T15:40:31;2.00;99.90
9772;DHT22;4925;52.588;13.370;2024-01-07T15:42:57;1.90;99.90
9772;DHT22;4925;52.588;13.370;2024-01-07T15:45:24;1.90;99.90
9772;DHT22;4925;52.588;13.370;2024-01-07T15:47:50;2.00;99.90
9772;DHT22;4925;52.588;13.370;2024-01-07T15:50:16;1.90;99.90
9772;DHT22;4925;52.588;13.370;2024-01-07T15:52:42;1.90;99.90
9772;DHT22;4925;52.588;13.370;2024-01-07T15:55:13;1.90;99.90